createdAt,value
2022-12-28T00:01:27.896Z,5.70
2022-12-28T00:03:55.419Z,5.50
2022-12-28T00:06:24.418Z,7.20
2022-12-28T00:08:55.625Z,5.30
2022-12-28T00:11:27.974Z,8.10
2022-12-28T00:14:00.220Z,6.70
2022-12-28T00:16:33.749Z,7.90
2022-12-28T00:19:03.716Z,5.20
2022-12-28T00:21:31.688Z,5.60
2022-12-28T00:24:00.375Z,13.20
2022-12-28T00:26:30.456Z,7.90
2022-12-28T00:29:04.251Z,5.70
2022-12-28T00:31:33.715Z,12.10
2022-12-28T00:34:02.196Z,6.30
2022-12-28T00:37:10.160Z,6.40
2022-12-28T00:39:18.818Z,8.70
2022-12-28T00:41:46.994Z,6.20
2022-12-28T00:44:14.254Z,9.30
2022-12-28T00:46:41.700Z,6.20
2022-12-28T00:49:09.150Z,5.80
2022-12-28T00:51:36.608Z,5.70
2022-12-28T00:54:04.046Z,6.90
2022-12-28T00:56:31.321Z,7.50
2022-12-28T00:58:59.411Z,6.90
2022-12-28T01:01:27.832Z,10.10
2022-12-28T01:03:56.523Z,10.60
2022-12-28T01:06:26.062Z,7.90
2022-12-28T01:08:54.037Z,8.70
2022-12-28T01:11:26.751Z,7.00
2022-12-28T01:13:56.562Z,7.20
2022-12-28T01:16:29.751Z,9.70
2022-12-28T01:18:59.836Z,11.30
2022-12-28T01:21:29.967Z,6.60
2022-12-28T01:23:59.785Z,8.60
2022-12-28T01:26:28.589Z,8.60
2022-12-28T01:28:57.534Z,7.60
2022-12-28T01:31:25.345Z,8.40
2022-12-28T01:33:53.637Z,7.00
2022-12-28T01:36:27.017Z,13.20
2022-12-28T01:38:57.232Z,7.00
2022-12-28T01:41:26.862Z,7.70
2022-12-28T01:43:53.885Z,10.10
2022-12-28T01:46:42.422Z,7.50
2022-12-28T01:49:13.571Z,9.80
2022-12-28T01:52:07.241Z,9.80
2022-12-28T01:54:41.668Z,7.60
2022-12-28T01:57:09.247Z,9.60
2022-12-28T01:59:41.062Z,9.30
2022-12-28T02:02:11.131Z,8.80
2022-12-28T02:04:38.658Z,11.50
2022-12-28T02:07:06.009Z,13.90
2022-12-28T02:09:42.174Z,9.50
2022-12-28T02:12:15.374Z,7.10
2022-12-28T02:14:44.004Z,7.10
2022-12-28T02:17:13.286Z,8.20
2022-12-28T02:19:46.088Z,9.80
2022-12-28T02:22:15.950Z,7.30
2022-12-28T02:25:13.184Z,6.10
2022-12-28T02:27:52.031Z,8.40
2022-12-28T02:30:19.372Z,8.90
2022-12-28T02:33:23.869Z,7.90
2022-12-28T02:35:58.220Z,10.20
2022-12-28T02:38:44.635Z,5.40
2022-12-28T02:41:20.166Z,7.50
2022-12-28T02:43:47.736Z,10.40
2022-12-28T02:46:44.690Z,5.50
2022-12-28T02:49:41.253Z,9.10
2022-12-28T02:52:45.650Z,4.50
2022-12-28T02:55:44.649Z,9.60
2022-12-28T02:58:49.034Z,9.10
2022-12-28T03:01:35.486Z,11.30
2022-12-28T03:04:16.550Z,6.40
2022-12-28T03:07:31.830Z,9.90
2022-12-28T03:10:10.450Z,6.40
2022-12-28T03:12:45.381Z,5.90
2022-12-28T03:15:29.047Z,6.30
2022-12-28T03:18:23.929Z,8.90
2022-12-28T03:21:13.707Z,8.20
2022-12-28T03:24:02.765Z,9.30
2022-12-28T03:26:51.930Z,8.80
2022-12-28T03:29:42.427Z,6.20
2022-12-28T03:32:11.003Z,10.50
2022-12-28T03:34:39.408Z,6.70
2022-12-28T03:37:13.101Z,8.70
2022-12-28T03:40:08.728Z,14.50
2022-12-28T03:43:01.978Z,6.80
2022-12-28T03:45:45.536Z,13.50
2022-12-28T03:48:16.963Z,8.00
2022-12-28T03:50:48.131Z,8.00
2022-12-28T03:53:24.065Z,6.90
2022-12-28T03:56:14.809Z,8.70
2022-12-28T03:58:42.256Z,7.40
2022-12-28T04:01:10.199Z,7.30
2022-12-28T04:03:39.190Z,5.60
2022-12-28T04:06:07.677Z,10.70
2022-12-28T04:08:35.587Z,7.40
2022-12-28T04:11:04.642Z,6.50
2022-12-28T04:13:33.218Z,7.70
2022-12-28T04:16:09.768Z,6.00
2022-12-28T04:18:37.555Z,5.90
2022-12-28T04:21:05.651Z,9.10
2022-12-28T04:23:34.045Z,12.40
2022-12-28T04:26:18.545Z,8.00
2022-12-28T04:28:46.539Z,10.70
2022-12-28T04:31:29.542Z,4.80
2022-12-28T04:34:05.762Z,8.00
2022-12-28T04:36:35.844Z,6.70
2022-12-28T04:39:06.059Z,10.40
2022-12-28T04:41:33.248Z,10.20
2022-12-28T04:44:00.395Z,9.50
2022-12-28T04:46:27.441Z,7.70
2022-12-28T04:48:54.667Z,7.20
2022-12-28T04:51:24.299Z,10.20
2022-12-28T04:53:52.863Z,12.00
2022-12-28T04:56:22.468Z,9.30
2022-12-28T04:58:57.383Z,6.80
2022-12-28T05:01:25.553Z,5.00
2022-12-28T05:03:57.379Z,11.10
2022-12-28T05:06:28.029Z,20.10
2022-12-28T05:08:57.330Z,20.00
2022-12-28T05:11:28.270Z,11.20
2022-12-28T05:13:56.474Z,12.70
2022-12-28T05:16:25.927Z,17.40
2022-12-28T05:18:55.284Z,18.50
2022-12-28T05:21:27.771Z,21.30
2022-12-28T05:23:55.692Z,17.40
2022-12-28T05:26:26.158Z,28.00
2022-12-28T05:28:54.230Z,16.80
2022-12-28T05:31:22.895Z,20.10
2022-12-28T05:33:50.590Z,8.40
2022-12-28T05:36:21.091Z,6.50
2022-12-28T05:38:48.563Z,5.70
2022-12-28T05:41:20.221Z,9.60
2022-12-28T05:43:49.111Z,6.70
2022-12-28T05:46:23.659Z,15.50
2022-12-28T05:48:52.023Z,29.90
2022-12-28T05:51:22.411Z,21.70
2022-12-28T05:53:50.023Z,31.10
2022-12-28T05:56:23.222Z,18.70
2022-12-28T05:58:59.307Z,12.10
2022-12-28T06:01:29.603Z,10.50
2022-12-28T06:04:00.412Z,11.00
2022-12-28T06:06:28.489Z,34.00
2022-12-28T06:08:55.953Z,67.40
2022-12-28T06:11:26.289Z,31.90
2022-12-28T06:13:53.589Z,36.20
2022-12-28T06:16:23.107Z,33.70
2022-12-28T06:18:52.081Z,34.10
2022-12-28T06:21:33.715Z,43.40
2022-12-28T06:24:02.484Z,81.90
2022-12-28T06:26:32.676Z,42.90
2022-12-28T06:29:01.548Z,26.20
2022-12-28T06:31:31.502Z,29.50
2022-12-28T06:34:00.821Z,893.80
2022-12-28T06:36:35.362Z,847.90
2022-12-28T06:39:05.191Z,329.20
2022-12-28T06:41:32.937Z,13.20
2022-12-28T06:44:00.790Z,10.40
2022-12-28T06:46:32.969Z,355.60
2022-12-28T06:49:00.526Z,271.30
2022-12-28T06:51:31.059Z,76.70
2022-12-28T06:53:58.314Z,28.30
2022-12-28T06:56:31.704Z,28.70
2022-12-28T06:59:03.444Z,34.90
2022-12-28T07:01:37.522Z,50.80
2022-12-28T07:04:07.312Z,40.10
2022-12-28T07:06:37.390Z,16.80
2022-12-28T07:09:11.660Z,18.10
2022-12-28T07:11:39.289Z,31.40
2022-12-28T07:14:07.265Z,21.30
2022-12-28T07:19:01.264Z,22.10
2022-12-28T07:21:31.331Z,17.30
2022-12-28T07:23:59.036Z,13.20
2022-12-28T07:26:33.461Z,15.20
2022-12-28T07:29:02.559Z,14.00
2022-12-28T07:31:40.026Z,5.80
2022-12-28T07:36:39.779Z,17.20
2022-12-28T07:39:07.046Z,11.60
2022-12-28T07:41:35.727Z,11.80
2022-12-28T07:44:07.891Z,11.60
2022-12-28T07:46:36.875Z,22.30
2022-12-28T07:49:04.448Z,21.70
2022-12-28T07:51:34.556Z,11.90
2022-12-28T07:54:03.049Z,10.80
2022-12-28T07:56:30.910Z,14.10
2022-12-28T07:59:01.241Z,9.80
2022-12-28T08:01:31.836Z,19.20
2022-12-28T08:04:02.821Z,15.30
2022-12-28T08:06:34.362Z,19.20
2022-12-28T08:09:02.431Z,14.60
2022-12-28T08:11:32.229Z,365.90
2022-12-28T08:14:00.938Z,296.80
2022-12-28T08:16:31.671Z,405.00
2022-12-28T08:19:00.063Z,87.00
2022-12-28T08:21:39.377Z,21.00
2022-12-28T08:24:08.437Z,14.10
2022-12-28T08:26:39.020Z,30.70
2022-12-28T08:29:13.467Z,26.70
2022-12-28T08:31:43.854Z,47.20
2022-12-28T08:34:17.902Z,143.90
2022-12-28T08:36:45.124Z,54.40
2022-12-28T08:39:13.603Z,60.00
2022-12-28T08:41:41.164Z,50.00
2022-12-28T08:44:08.549Z,25.60
2022-12-28T08:46:37.097Z,28.60
2022-12-28T08:49:05.330Z,25.60
2022-12-28T08:51:35.701Z,9.60
2022-12-28T08:55:02.641Z,8.00
2022-12-28T08:58:29.522Z,9.50
2022-12-28T09:00:56.594Z,17.50
2022-12-28T09:04:27.820Z,10.80
2022-12-28T09:07:59.366Z,37.60
2022-12-28T09:10:27.351Z,13.70
2022-12-28T09:12:54.597Z,8.10
2022-12-28T09:15:22.155Z,21.10
2022-12-28T09:17:50.126Z,18.90
2022-12-28T09:20:17.789Z,9.20
2022-12-28T09:22:45.148Z,8.90
2022-12-28T09:25:14.446Z,7.40
2022-12-28T09:27:41.807Z,18.40
2022-12-28T09:30:09.567Z,14.20
2022-12-28T09:32:37.097Z,19.30
2022-12-28T09:35:06.075Z,11.80
2022-12-28T09:37:33.070Z,13.00
2022-12-28T09:40:01.747Z,6.80
2022-12-28T09:42:30.035Z,6.60
2022-12-28T09:45:14.692Z,11.70
2022-12-28T09:47:47.996Z,8.90
2022-12-28T09:50:18.337Z,6.60
2022-12-28T09:52:59.697Z,9.20
2022-12-28T09:55:28.259Z,9.40
2022-12-28T09:57:58.361Z,14.20
2022-12-28T10:00:42.523Z,7.10
2022-12-28T10:03:14.131Z,7.00
2022-12-28T10:05:41.670Z,5.80
2022-12-28T10:08:14.042Z,8.80
2022-12-28T10:10:48.452Z,10.70
2022-12-28T10:13:56.798Z,7.70
2022-12-28T10:16:20.271Z,14.40
2022-12-28T10:18:48.961Z,9.70
2022-12-28T10:21:19.842Z,5.80
2022-12-28T10:24:29.043Z,9.30
2022-12-28T10:26:39.880Z,6.60
2022-12-28T10:29:13.902Z,9.60
2022-12-28T10:31:42.904Z,9.20
2022-12-28T10:34:20.412Z,6.20
2022-12-28T10:36:49.570Z,7.00
2022-12-28T10:39:22.969Z,10.00
2022-12-28T10:41:51.763Z,7.90
2022-12-28T10:44:41.855Z,10.40
2022-12-28T10:47:42.586Z,8.00
2022-12-28T10:50:41.277Z,5.20
2022-12-28T10:53:19.839Z,9.10
2022-12-28T10:55:47.253Z,5.60
2022-12-28T10:58:33.412Z,7.10
2022-12-28T11:01:06.639Z,6.00
2022-12-28T11:03:37.895Z,5.80
2022-12-28T11:06:26.561Z,10.20
2022-12-28T11:09:14.138Z,8.80
2022-12-28T11:11:43.609Z,8.10
2022-12-28T11:14:33.854Z,8.60
2022-12-28T11:17:14.029Z,5.80
2022-12-28T11:19:42.097Z,10.90
2022-12-28T11:22:11.915Z,6.10
2022-12-28T11:24:40.095Z,10.10
2022-12-28T11:27:13.100Z,10.10
2022-12-28T11:29:45.056Z,6.60
2022-12-28T11:32:36.054Z,8.10
2022-12-28T11:35:04.542Z,6.90
2022-12-28T11:37:32.197Z,5.20
2022-12-28T11:39:59.961Z,5.70
2022-12-28T11:42:39.640Z,4.30
2022-12-28T11:45:16.390Z,6.30
2022-12-28T11:47:45.744Z,5.00
2022-12-28T11:50:38.122Z,14.80
2022-12-28T11:53:31.698Z,5.90
2022-12-28T11:56:07.913Z,6.40
2022-12-28T11:58:41.976Z,14.70
2022-12-28T12:01:40.593Z,7.00
2022-12-28T12:04:17.755Z,5.70
2022-12-28T12:06:45.418Z,5.50
2022-12-28T12:09:21.989Z,7.30
2022-12-28T12:11:52.112Z,4.90
2022-12-28T12:14:23.558Z,5.00
2022-12-28T12:17:03.019Z,6.30
2022-12-28T12:19:35.569Z,15.70
2022-12-28T12:22:12.659Z,3.90
2022-12-28T12:24:49.542Z,4.80
2022-12-28T12:27:28.393Z,4.70
2022-12-28T12:30:16.321Z,7.00
2022-12-28T12:32:55.744Z,5.70
2022-12-28T12:35:26.788Z,6.50
2022-12-28T12:38:25.474Z,13.60
2022-12-28T12:41:04.406Z,7.20
2022-12-28T12:43:47.030Z,15.10
2022-12-28T12:46:29.192Z,7.30
2022-12-28T12:49:25.969Z,8.90
2022-12-28T12:52:15.138Z,6.70
2022-12-28T12:55:00.740Z,4.40
2022-12-28T12:57:43.431Z,7.40
2022-12-28T13:00:16.443Z,12.90
2022-12-28T13:03:05.420Z,36.20
2022-12-28T13:05:33.453Z,5.80
2022-12-28T13:08:01.130Z,4.00
2022-12-28T13:10:35.127Z,4.80
2022-12-28T13:13:05.247Z,5.30
2022-12-28T13:15:32.914Z,4.50
2022-12-28T13:21:06.011Z,4.20
2022-12-28T13:23:45.406Z,10.00
2022-12-28T13:26:15.067Z,5.90
2022-12-28T13:28:58.101Z,8.70
2022-12-28T13:31:37.356Z,5.00
2022-12-28T13:34:15.553Z,5.30
2022-12-28T13:36:58.867Z,5.90
2022-12-28T13:39:34.210Z,7.30
2022-12-28T13:42:33.314Z,5.60
2022-12-28T13:45:04.004Z,9.80
2022-12-28T13:47:35.711Z,8.20
2022-12-28T13:50:15.759Z,8.00
2022-12-28T13:52:59.501Z,7.70
2022-12-28T13:55:33.920Z,9.60
2022-12-28T13:58:05.502Z,9.70
2022-12-28T14:00:35.804Z,11.20
2022-12-28T14:03:08.836Z,9.30
2022-12-28T14:05:36.915Z,7.30
2022-12-28T14:08:06.613Z,7.50
2022-12-28T14:10:34.130Z,8.20
2022-12-28T14:13:03.629Z,18.40
2022-12-28T14:15:38.921Z,7.50
2022-12-28T14:18:13.373Z,8.90
2022-12-28T14:20:52.396Z,8.50
2022-12-28T14:23:26.666Z,7.90
2022-12-28T14:25:56.526Z,9.60
2022-12-28T14:28:35.521Z,12.00
2022-12-28T14:31:07.961Z,9.40
2022-12-28T14:33:54.994Z,9.60
2022-12-28T14:36:27.947Z,7.40
2022-12-28T14:39:02.747Z,7.70
2022-12-28T14:41:40.700Z,13.50
2022-12-28T14:44:19.220Z,12.60
2022-12-28T14:46:46.825Z,14.10
2022-12-28T14:49:26.228Z,11.70
2022-12-28T14:51:54.394Z,15.30
2022-12-28T14:54:25.942Z,11.90
2022-12-28T14:57:04.683Z,15.60
2022-12-28T14:59:42.474Z,17.70
2022-12-28T15:02:40.690Z,31.00
2022-12-28T15:05:33.707Z,28.40
2022-12-28T15:08:01.267Z,45.90
2022-12-28T15:10:28.621Z,37.80
2022-12-28T15:12:55.976Z,49.90
2022-12-28T15:15:23.437Z,75.10
2022-12-28T15:17:51.285Z,72.40
2022-12-28T15:20:18.557Z,55.80
2022-12-28T15:22:48.493Z,69.00
2022-12-28T15:25:16.030Z,97.00
2022-12-28T15:27:43.691Z,129.90
2022-12-28T15:30:16.302Z,123.50
2022-12-28T15:32:48.442Z,72.50
2022-12-28T15:35:15.898Z,56.60
2022-12-28T15:37:43.155Z,44.10
2022-12-28T15:40:10.816Z,46.50
2022-12-28T15:42:40.533Z,53.50
2022-12-28T15:45:09.930Z,80.40
2022-12-28T15:47:37.219Z,84.80
2022-12-28T15:50:05.301Z,66.80
2022-12-28T15:52:33.228Z,75.30
2022-12-28T15:55:00.883Z,86.80
2022-12-28T15:57:28.036Z,77.00
2022-12-28T15:59:55.793Z,104.50
2022-12-28T16:02:23.455Z,77.30
2022-12-28T16:04:51.019Z,74.40
2022-12-28T16:07:20.425Z,62.30
2022-12-28T16:09:48.703Z,62.80
2022-12-28T16:12:16.816Z,75.60
2022-12-28T16:14:45.969Z,66.90
2022-12-28T16:17:14.161Z,56.20
2022-12-28T16:19:41.860Z,70.90
2022-12-28T16:22:09.162Z,73.30
2022-12-28T16:24:36.616Z,63.60
2022-12-28T16:27:04.161Z,65.10
2022-12-28T16:29:31.944Z,53.80
2022-12-28T16:32:01.108Z,58.00
2022-12-28T16:34:28.830Z,56.60
2022-12-28T16:36:58.754Z,51.90
2022-12-28T16:39:28.488Z,46.10
2022-12-28T16:41:57.048Z,40.90
2022-12-28T16:44:27.320Z,41.30
2022-12-28T16:46:57.960Z,40.30
2022-12-28T16:49:26.639Z,39.00
2022-12-28T16:51:54.037Z,36.00
2022-12-28T16:54:24.028Z,44.70
2022-12-28T16:56:53.227Z,39.50
2022-12-28T16:59:26.321Z,38.20
2022-12-28T17:01:56.142Z,38.50
2022-12-28T17:04:24.413Z,38.30
2022-12-28T17:06:51.964Z,48.90
2022-12-28T17:09:20.346Z,40.70
2022-12-28T17:11:49.335Z,49.10
2022-12-28T17:14:35.828Z,48.80
2022-12-28T17:17:06.145Z,57.90
2022-12-28T17:19:34.382Z,48.00
2022-12-28T17:22:01.698Z,48.50
2022-12-28T17:24:31.713Z,52.50
2022-12-28T17:27:05.139Z,47.20
2022-12-28T17:29:35.335Z,50.50
2022-12-28T17:32:04.251Z,49.70
2022-12-28T17:34:31.741Z,49.50
2022-12-28T17:36:59.157Z,48.60
2022-12-28T17:39:26.597Z,47.00
2022-12-28T17:41:53.861Z,51.80
2022-12-28T17:44:21.203Z,42.90
2022-12-28T17:46:48.354Z,35.20
2022-12-28T17:49:16.155Z,38.30
2022-12-28T17:51:44.089Z,43.50
2022-12-28T17:54:12.673Z,36.50
2022-12-28T17:56:41.360Z,30.70
2022-12-28T17:59:14.315Z,34.70
2022-12-28T18:01:42.493Z,42.10
2022-12-28T18:04:11.621Z,38.90
2022-12-28T18:06:39.379Z,37.20
2022-12-28T18:09:06.839Z,38.70
2022-12-28T18:11:34.507Z,52.20
2022-12-28T18:14:01.856Z,48.40
2022-12-28T18:16:29.180Z,37.80
2022-12-28T18:18:56.675Z,46.50
2022-12-28T18:21:24.740Z,44.00
2022-12-28T18:23:52.303Z,45.30
2022-12-28T18:26:23.353Z,40.80
2022-12-28T18:28:50.597Z,35.80
2022-12-28T18:31:19.517Z,35.70
2022-12-28T18:33:47.151Z,35.00
2022-12-28T18:36:18.164Z,30.80
2022-12-28T18:38:46.577Z,33.50
2022-12-28T18:41:16.268Z,33.70
2022-12-28T18:43:43.848Z,36.60
2022-12-28T18:46:11.173Z,29.50
2022-12-28T18:48:40.705Z,26.40
2022-12-28T18:51:13.646Z,29.00
2022-12-28T18:53:41.758Z,32.00
2022-12-28T18:56:14.701Z,28.60
2022-12-28T18:58:42.407Z,34.30
2022-12-28T19:01:40.098Z,27.30
2022-12-28T19:04:07.035Z,34.70
2022-12-28T19:06:35.808Z,35.00
2022-12-28T19:09:04.593Z,34.70
2022-12-28T19:11:32.441Z,45.60
2022-12-28T19:14:05.150Z,43.10
2022-12-28T19:16:33.774Z,34.40
2022-12-28T19:19:01.181Z,42.20
2022-12-28T19:21:40.071Z,45.90
2022-12-28T19:24:15.965Z,30.70
2022-12-28T19:26:44.519Z,23.70
2022-12-28T19:29:13.435Z,18.30
2022-12-28T19:31:41.088Z,18.30
2022-12-28T19:34:11.453Z,18.60
2022-12-28T19:36:39.093Z,21.10
2022-12-28T19:39:06.854Z,16.80
2022-12-28T19:41:35.132Z,21.90
2022-12-28T19:44:02.485Z,22.40
2022-12-28T19:46:32.740Z,21.40
2022-12-28T19:49:01.916Z,18.10
2022-12-28T19:51:32.140Z,17.40
2022-12-28T19:54:00.875Z,19.70
2022-12-28T19:56:28.683Z,22.90
2022-12-28T19:59:05.556Z,18.50
2022-12-28T20:01:36.359Z,17.40
2022-12-28T20:04:12.489Z,25.10
2022-12-28T20:06:42.533Z,18.70
2022-12-28T20:09:11.277Z,17.70
2022-12-28T20:11:40.152Z,21.50
2022-12-28T20:14:07.727Z,29.10
2022-12-28T20:16:35.681Z,22.30
2022-12-28T20:19:06.266Z,20.50
2022-12-28T20:21:34.590Z,23.00
2022-12-28T20:24:02.156Z,21.50
2022-12-28T20:26:29.812Z,20.40
2022-12-28T20:28:58.714Z,22.60
2022-12-28T20:31:27.401Z,18.60
2022-12-28T20:33:55.267Z,21.60
2022-12-28T20:36:25.026Z,22.00
2022-12-28T20:38:54.509Z,18.70
2022-12-28T20:41:50.708Z,21.80
2022-12-28T20:44:31.655Z,21.60
2022-12-28T20:47:04.053Z,24.80
2022-12-28T20:49:31.922Z,20.80
2022-12-28T20:51:59.070Z,23.80
2022-12-28T20:54:26.728Z,19.00
2022-12-28T20:56:55.780Z,22.10
2022-12-28T20:59:25.280Z,19.90
2022-12-28T21:01:53.887Z,20.40
2022-12-28T21:04:24.088Z,22.10
2022-12-28T21:06:53.954Z,17.20
2022-12-28T21:09:21.931Z,16.40
2022-12-28T21:11:49.485Z,18.50
2022-12-28T21:14:16.632Z,17.70
2022-12-28T21:16:44.016Z,26.50
2022-12-28T21:19:11.443Z,25.50
2022-12-28T21:21:39.001Z,25.90
2022-12-28T21:24:06.871Z,27.50
2022-12-28T21:26:34.016Z,29.50
2022-12-28T21:29:01.171Z,30.10
2022-12-28T21:31:28.456Z,26.30
2022-12-28T21:33:56.503Z,23.30
2022-12-28T21:36:25.393Z,23.20
2022-12-28T21:38:52.843Z,21.30
2022-12-28T21:41:40.688Z,25.00
2022-12-28T21:44:13.715Z,21.80
2022-12-28T21:46:41.750Z,23.80
2022-12-28T21:49:09.398Z,25.80
2022-12-28T21:51:38.736Z,18.00
2022-12-28T21:54:22.535Z,23.20
2022-12-28T21:56:55.062Z,34.60
2022-12-28T21:59:24.374Z,26.10
2022-12-28T22:02:11.480Z,27.40
2022-12-28T22:05:02.501Z,23.10
2022-12-28T22:07:31.639Z,24.80
2022-12-28T22:10:17.459Z,22.70
2022-12-28T22:12:44.991Z,22.30
2022-12-28T22:15:32.741Z,24.30
2022-12-28T22:18:06.395Z,27.60
2022-12-28T22:20:36.137Z,27.90
2022-12-28T22:23:04.543Z,29.10
2022-12-28T22:25:31.867Z,27.70
2022-12-28T22:27:59.843Z,21.40
2022-12-28T22:30:28.328Z,23.20
2022-12-28T22:32:55.574Z,19.50
2022-12-28T22:35:23.960Z,19.30
2022-12-28T22:37:51.634Z,21.00
2022-12-28T22:40:19.789Z,17.60
2022-12-28T22:42:48.836Z,17.20
2022-12-28T22:45:19.620Z,20.50
2022-12-28T22:47:47.596Z,19.60
2022-12-28T22:50:17.302Z,19.40
2022-12-28T22:52:45.049Z,23.40
2022-12-28T22:55:13.143Z,21.60
2022-12-28T22:57:40.289Z,29.90
2022-12-28T23:00:11.486Z,25.20
2022-12-28T23:02:38.819Z,23.10
2022-12-28T23:05:06.448Z,19.70
2022-12-28T23:07:35.639Z,21.00
2022-12-28T23:10:03.716Z,18.60
2022-12-28T23:12:30.758Z,17.50
2022-12-28T23:15:17.994Z,22.30
2022-12-28T23:17:46.383Z,17.60
2022-12-28T23:20:32.466Z,19.40
2022-12-28T23:23:18.241Z,23.50
2022-12-28T23:26:04.435Z,22.40
2022-12-28T23:28:35.196Z,26.20
2022-12-28T23:31:02.662Z,17.50
2022-12-28T23:33:29.881Z,23.70
2022-12-28T23:36:02.072Z,26.70
2022-12-28T23:38:31.391Z,21.20
2022-12-28T23:41:17.440Z,20.30
2022-12-28T23:43:44.799Z,23.10
2022-12-28T23:46:11.898Z,29.50
2022-12-28T23:48:39.123Z,25.90
2022-12-28T23:51:07.685Z,16.50
2022-12-28T23:53:35.648Z,20.50
2022-12-28T23:56:02.903Z,103.50
2022-12-28T23:58:30.170Z,30.50
